Time;durP1;ratioP1;P1;durP2;ratioP2;P2;SDS_P1;SDS_P2;PMS_P1;PMS_P2;Temp;Humidity;BMP_temperature;BMP_pressure;BME280_temperature;BME280_humidity;BME280_pressure;Samples;Min_cycle;Max_cycle;Signal;HPM_P1;HPM_P2
2024/01/03 00:00:01;;;;;;;2.90;1.80;;;8.90;1.00;;;;;;5083593;27;20972;-71
2024/01/03 00:02:28;;;;;;;2.60;1.80;;;8.90;1.00;;;;;;5083069;27;20614;-71
2024/01/03 00:04:55;;;;;;;2.30;2.10;;;8.80;1.00;;;;;;5084917;27;21023;-71
2024/01/03 00:07:23;;;;;;;2.30;2.10;;;8.90;1.00;;;;;;5085420;27;20509;-71
2024/01/03 00:09:55;;;;;;;2.67;2.47;;;8.90;1.00;;;;;;5086021;27;20866;-71
2024/01/03 00:12:23;;;;;;;2.17;1.90;;;8.80;1.00;;;;;;5079521;27;20498;-70
2024/01/03 00:14:53;;;;;;;2.30;2.10;;;8.80;1.00;;;;;;5082315;28;20463;-72
2024/01/03 00:17:21;;;;;;;2.50;2.30;;;8.80;1.00;;;;;;5081369;27;20462;-72
2024/01/03 00:19:55;;;;;;;2.23;2.03;;;8.90;1.00;;;;;;5084339;28;20553;-71
2024/01/03 00:22:22;;;;;;;3.43;2.87;;;8.90;1.00;;;;;;5085111;27;20457;-71
2024/01/03 00:24:49;;;;;;;2.37;2.17;;;8.80;1.00;;;;;;5070195;28;21245;-73
2024/01/03 00:27:18;;;;;;;1.73;1.63;;;8.90;1.00;;;;;;5065589;28;20979;-71
2024/01/03 00:30:01;;;;;;;2.63;2.30;;;8.90;1.00;;;;;;5067161;28;22262;-71
2024/01/03 00:32:28;;;;;;;2.90;2.00;;;8.90;1.00;;;;;;5079364;28;20461;-71
2024/01/03 00:34:58;;;;;;;2.03;1.77;;;8.90;1.00;;;;;;5089949;27;20497;-72
2024/01/03 00:37:29;;;;;;;1.90;1.80;;;9.00;1.00;;;;;;5089127;28;21190;-71
2024/01/03 00:39:58;;;;;;;2.30;1.63;;;9.00;1.00;;;;;;5084543;27;20457;-71
2024/01/03 00:42:26;;;;;;;2.13;1.73;;;9.00;1.00;;;;;;5095177;27;20546;-70
2024/01/03 00:44:53;;;;;;;2.40;1.77;;;9.00;1.00;;;;;;5083582;27;20487;-70
2024/01/03 00:47:22;;;;;;;1.93;1.80;;;9.00;1.00;;;;;;5068863;28;20529;-73
2024/01/03 00:49:50;;;;;;;2.00;1.53;;;9.00;1.00;;;;;;5071850;27;20463;-73
2024/01/03 00:52:17;;;;;;;2.50;1.57;;;9.00;1.00;;;;;;5080189;27;20541;-70
2024/01/03 00:54:46;;;;;;;2.70;1.60;;;9.00;1.00;;;;;;5092694;27;20863;-69
2024/01/03 00:57:15;;;;;;;1.73;1.63;;;9.00;1.00;;;;;;5090677;27;21039;-68
2024/01/03 00:59:44;;;;;;;3.90;1.70;;;9.00;1.00;;;;;;5091701;27;20963;-70
2024/01/03 01:02:11;;;;;;;1.70;1.57;;;9.10;1.00;;;;;;5090469;27;20456;-69
2024/01/03 01:04:41;;;;;;;3.23;1.43;;;9.00;1.00;;;;;;5093870;28;20542;-70
2024/01/03 01:07:08;;;;;;;1.57;1.47;;;9.00;1.00;;;;;;5092859;28;20536;-74
2024/01/03 01:09:35;;;;;;;2.23;1.93;;;9.10;1.00;;;;;;5079724;27;20815;-71
2024/01/03 01:12:02;;;;;;;1.47;1.30;;;9.10;1.00;;;;;;5073263;28;20534;-70
2024/01/03 01:14:29;;;;;;;2.00;1.60;;;9.10;1.00;;;;;;5074748;28;20497;-73
2024/01/03 01:16:56;;;;;;;2.67;1.50;;;9.10;1.00;;;;;;5089556;27;20551;-71
2024/01/03 01:19:23;;;;;;;1.63;1.50;;;9.10;1.00;;;;;;5091232;27;20969;-71
2024/01/03 01:21:51;;;;;;;1.80;1.60;;;9.10;1.00;;;;;;5090433;27;20533;-71
2024/01/03 01:24:18;;;;;;;1.50;1.40;;;9.10;1.00;;;;;;5090190;27;20547;-72
2024/01/03 01:26:45;;;;;;;1.93;1.37;;;9.10;1.00;;;;;;5091444;27;20517;-70
2024/01/03 01:29:12;;;;;;;2.10;1.37;;;9.00;1.00;;;;;;5087149;27;20577;-70
2024/01/03 01:31:39;;;;;;;1.40;1.30;;;9.00;1.00;;;;;;5082823;27;20483;-71
2024/01/03 01:34:06;;;;;;;1.83;1.30;;;9.00;1.00;;;;;;5070433;27;20477;-69
2024/01/03 01:36:33;;;;;;;1.83;1.60;;;8.90;1.00;;;;;;5087714;27;20546;-70
2024/01/03 01:41:42;;;;;;;1.53;1.20;;;8.90;1.00;;;;;;5074523;28;20451;-69
2024/01/03 01:44:09;;;;;;;1.60;1.50;;;8.90;1.00;;;;;;5089240;27;20546;-70
2024/01/03 01:46:37;;;;;;;2.03;1.40;;;9.00;1.00;;;;;;5090886;27;20462;-70
2024/01/03 01:49:05;;;;;;;2.27;1.80;;;9.00;1.00;;;;;;5091773;28;20459;-71
2024/01/03 01:51:33;;;;;;;1.97;1.60;;;8.90;1.00;;;;;;5090823;27;20450;-71
2024/01/03 01:54:02;;;;;;;2.33;1.40;;;9.00;1.00;;;;;;5089944;28;21043;-73
2024/01/03 01:56:29;;;;;;;1.50;1.40;;;8.90;1.00;;;;;;5092580;27;20459;-74
2024/01/03 01:58:57;;;;;;;1.53;1.17;;;8.90;1.00;;;;;;5094935;27;21494;-76
2024/01/03 02:01:24;;;;;;;1.70;1.20;;;8.80;1.00;;;;;;5089646;28;20486;-75
2024/01/03 02:03:52;;;;;;;1.47;1.20;;;8.80;1.00;;;;;;5089312;27;20451;-73
2024/01/03 02:06:21;;;;;;;1.60;1.50;;;8.80;1.00;;;;;;5091102;27;20581;-74
2024/01/03 02:08:48;;;;;;;1.90;1.30;;;8.80;1.00;;;;;;5092877;27;21122;-73
2024/01/03 02:11:17;;;;;;;1.90;1.60;;;8.80;1.00;;;;;;5091470;28;20521;-75
2024/01/03 02:13:45;;;;;;;1.43;1.33;;;8.80;1.00;;;;;;5089151;28;20942;-73
2024/01/03 02:16:12;;;;;;;2.50;1.63;;;8.80;1.00;;;;;;5087478;27;20485;-74
2024/01/03 02:18:40;;;;;;;2.00;1.30;;;8.80;1.00;;;;;;5089341;28;20546;-74
2024/01/03 02:21:13;;;;;;;1.00;0.90;;;8.80;1.00;;;;;;5091483;27;21332;-73
2024/01/03 02:23:40;;;;;;;1.80;1.60;;;8.80;1.00;;;;;;5090882;27;20459;-73
2024/01/03 02:26:08;;;;;;;1.43;1.20;;;8.90;1.00;;;;;;5089778;28;20532;-73
2024/01/03 02:28:34;;;;;;;1.40;1.07;;;8.90;1.00;;;;;;5090067;28;20543;-75
2024/01/03 02:31:02;;;;;;;1.97;0.93;;;8.90;1.00;;;;;;5075225;27;20463;-72
2024/01/03 02:33:28;;;;;;;1.67;1.00;;;8.90;1.00;;;;;;5081566;28;20446;-73
2024/01/03 02:35:55;;;;;;;1.03;0.93;;;9.00;1.00;;;;;;5092294;28;20571;-74
2024/01/03 02:38:24;;;;;;;2.50;1.30;;;9.00;1.00;;;;;;5070783;27;20454;-74
2024/01/03 02:40:51;;;;;;;1.20;0.80;;;9.00;1.00;;;;;;5077443;27;20568;-73
2024/01/03 02:43:18;;;;;;;1.30;0.93;;;9.00;1.00;;;;;;5087791;27;20459;-74
2024/01/03 02:45:45;;;;;;;0.97;0.60;;;9.00;1.00;;;;;;5083809;27;20486;-73
2024/01/03 02:48:13;;;;;;;1.53;1.30;;;9.00;1.00;;;;;;5070689;28;21423;-74
2024/01/03 02:50:44;;;;;;;1.13;0.80;;;9.00;1.00;;;;;;5070237;28;20479;-73
2024/01/03 02:53:11;;;;;;;0.83;0.80;;;9.10;1.00;;;;;;5069364;28;20467;-73
2024/01/03 02:55:39;;;;;;;2.13;0.83;;;9.10;1.00;;;;;;5070410;28;20471;-74
2024/01/03 02:58:06;;;;;;;0.93;0.80;;;9.10;1.00;;;;;;5068096;27;20487;-74
2024/01/03 03:00:33;;;;;;;1.30;1.00;;;9.10;1.00;;;;;;5081795;28;20514;-74
2024/01/03 03:03:00;;;;;;;0.80;0.70;;;9.10;1.00;;;;;;5069406;28;20486;-72
2024/01/03 03:05:27;;;;;;;1.57;0.80;;;9.10;1.00;;;;;;5071950;28;20550;-77
2024/01/03 03:07:54;;;;;;;0.90;0.80;;;9.20;1.00;;;;;;5076161;28;20505;-75
2024/01/03 03:10:21;;;;;;;3.50;0.70;;;9.20;1.00;;;;;;5076848;27;20560;-76
2024/01/03 03:12:49;;;;;;;1.10;0.67;;;9.20;1.00;;;;;;5077303;28;20519;-75
2024/01/03 03:15:17;;;;;;;1.70;0.70;;;9.20;1.00;;;;;;5088489;28;20465;-73
2024/01/03 03:17:43;;;;;;;1.73;1.00;;;9.20;1.00;;;;;;5084351;27;20555;-75
2024/01/03 03:20:11;;;;;;;1.20;0.70;;;9.20;1.00;;;;;;5085676;27;20489;-74
2024/01/03 03:22:38;;;;;;;2.70;0.80;;;9.20;1.00;;;;;;5085249;27;20514;-74
2024/01/03 03:25:06;;;;;;;1.53;0.70;;;9.20;1.00;;;;;;5069481;28;20484;-74
2024/01/03 03:27:33;;;;;;;1.37;0.53;;;9.20;1.00;;;;;;5084758;27;20455;-75
2024/01/03 03:30:02;;;;;;;0.90;0.60;;;9.20;1.00;;;;;;5073955;27;21298;-74
2024/01/03 03:32:29;;;;;;;1.07;0.60;;;9.10;1.00;;;;;;5075892;28;20452;-74
2024/01/03 03:34:56;;;;;;;1.23;0.50;;;9.10;1.00;;;;;;5068764;28;20546;-75
2024/01/03 03:37:24;;;;;;;1.20;0.70;;;9.00;1.00;;;;;;5068612;27;20452;-75
2024/01/03 03:39:51;;;;;;;1.83;0.80;;;9.00;1.00;;;;;;5064836;28;21053;-74
2024/01/03 03:42:19;;;;;;;1.77;1.00;;;9.00;1.00;;;;;;5087720;27;20463;-74
2024/01/03 03:44:46;;;;;;;1.10;0.60;;;8.90;1.00;;;;;;5088575;27;21053;-74
2024/01/03 03:47:14;;;;;;;2.40;0.60;;;8.90;1.00;;;;;;5092570;28;20461;-74
2024/01/03 03:49:41;;;;;;;0.73;0.60;;;8.90;1.00;;;;;;5089621;28;20473;-74
2024/01/03 03:52:08;;;;;;;0.90;0.70;;;8.90;1.00;;;;;;5088826;27;20455;-72
2024/01/03 03:54:34;;;;;;;1.00;0.67;;;8.90;1.00;;;;;;5089258;27;20473;-74
2024/01/03 03:57:02;;;;;;;0.90;0.50;;;8.90;1.00;;;;;;5090547;27;20970;-75
2024/01/03 03:59:29;;;;;;;1.33;0.93;;;8.80;1.00;;;;;;5070267;27;20482;-77
2024/01/03 04:01:56;;;;;;;5.03;0.93;;;8.80;1.00;;;;;;5068482;28;20545;-74
2024/01/03 04:04:24;;;;;;;1.20;0.90;;;8.80;1.00;;;;;;5077579;28;20470;-75
2024/01/03 04:06:51;;;;;;;1.10;1.00;;;8.80;1.00;;;;;;5067676;28;20495;-73
2024/01/03 04:09:19;;;;;;;2.33;0.87;;;8.70;1.00;;;;;;5076542;28;20473;-72
2024/01/03 04:11:48;;;;;;;1.30;0.80;;;8.70;1.00;;;;;;5089012;28;20516;-75
2024/01/03 04:14:15;;;;;;;1.90;0.80;;;8.70;1.00;;;;;;5088609;27;20477;-71
2024/01/03 04:16:42;;;;;;;1.30;0.90;;;8.70;1.00;;;;;;5086710;27;20554;-69
2024/01/03 04:19:10;;;;;;;1.63;0.60;;;8.60;1.00;;;;;;5088566;27;20505;-70
2024/01/03 04:21:38;;;;;;;0.93;0.80;;;8.60;1.00;;;;;;5089976;28;20550;-69
2024/01/03 04:24:06;;;;;;;1.37;0.80;;;8.60;1.00;;;;;;5089188;28;20466;-71
2024/01/03 04:26:33;;;;;;;1.33;0.63;;;8.70;1.00;;;;;;5085042;27;20470;-70
2024/01/03 04:29:00;;;;;;;1.00;0.90;;;8.60;1.00;;;;;;5088989;27;20427;-69
2024/01/03 04:31:27;;;;;;;1.07;0.67;;;8.60;1.00;;;;;;5085263;28;20455;-71
2024/01/03 04:33:54;;;;;;;2.07;0.87;;;8.60;1.00;;;;;;5090823;28;21049;-69
2024/01/03 04:36:20;;;;;;;2.03;0.90;;;8.50;1.00;;;;;;5087185;27;21186;-72
2024/01/03 04:38:49;;;;;;;0.70;0.60;;;8.50;1.00;;;;;;5086085;27;20462;-69
2024/01/03 04:41:17;;;;;;;0.80;0.60;;;8.50;1.00;;;;;;5082306;27;20981;-69
2024/01/03 04:43:44;;;;;;;3.77;3.43;;;8.50;1.00;;;;;;5081449;28;20506;-69
2024/01/03 04:46:11;;;;;;;1.80;1.30;;;8.60;1.00;;;;;;5086387;28;20457;-70
2024/01/03 04:48:37;;;;;;;0.90;0.70;;;8.60;1.00;;;;;;5087022;27;20453;-71
2024/01/03 04:51:05;;;;;;;1.80;0.90;;;8.60;1.00;;;;;;5076045;27;20821;-70
2024/01/03 04:53:32;;;;;;;2.00;0.97;;;8.60;1.00;;;;;;5077061;27;20520;-70
2024/01/03 04:56:00;;;;;;;1.00;0.80;;;8.60;1.00;;;;;;5087990;28;20459;-69
2024/01/03 04:58:27;;;;;;;1.47;1.00;;;8.60;1.00;;;;;;5085424;27;20554;-70
2024/01/03 05:00:54;;;;;;;1.47;0.70;;;8.60;1.00;;;;;;5089473;27;20474;-69
2024/01/03 05:03:21;;;;;;;1.00;0.73;;;8.60;1.00;;;;;;5082937;27;20912;-70
2024/01/03 05:05:48;;;;;;;1.50;0.90;;;8.60;1.00;;;;;;5085767;27;20455;-70
2024/01/03 05:08:16;;;;;;;1.30;0.83;;;8.60;1.00;;;;;;5078008;27;20481;-70
2024/01/03 05:10:43;;;;;;;1.17;1.00;;;8.60;1.00;;;;;;5071944;28;20456;-70
2024/01/03 05:13:11;;;;;;;1.63;1.20;;;8.60;1.00;;;;;;5067297;28;20466;-70
2024/01/03 05:15:38;;;;;;;1.63;0.83;;;8.60;1.00;;;;;;5070792;27;21121;-70
2024/01/03 05:18:05;;;;;;;3.27;1.10;;;8.60;1.00;;;;;;5087892;28;20481;-69
2024/01/03 05:20:32;;;;;;;1.83;0.80;;;8.60;1.00;;;;;;5089120;27;21204;-69
2024/01/03 05:22:59;;;;;;;1.70;0.90;;;8.70;1.00;;;;;;5091828;27;20474;-73
2024/01/03 05:25:26;;;;;;;1.30;1.00;;;8.60;1.00;;;;;;5090833;27;21278;-74
2024/01/03 05:27:53;;;;;;;2.60;1.00;;;8.60;1.00;;;;;;5086317;27;20457;-74
2024/01/03 05:30:22;;;;;;;2.40;1.10;;;8.60;1.00;;;;;;5071299;28;20552;-75
2024/01/03 05:32:48;;;;;;;1.43;1.13;;;8.60;1.00;;;;;;5076240;28;20943;-74
2024/01/03 05:35:17;;;;;;;1.33;0.97;;;8.60;1.00;;;;;;5078734;28;20450;-74
2024/01/03 05:37:43;;;;;;;1.97;1.43;;;8.70;1.00;;;;;;5085780;27;21190;-74
2024/01/03 05:40:11;;;;;;;4.17;1.97;;;8.70;1.00;;;;;;5088469;27;20539;-74
2024/01/03 05:42:38;;;;;;;4.80;2.33;;;8.60;1.00;;;;;;5090863;28;20566;-75
2024/01/03 05:45:06;;;;;;;2.67;1.73;;;8.70;1.00;;;;;;5090812;28;20545;-74
2024/01/03 05:47:34;;;;;;;1.70;1.27;;;8.70;1.00;;;;;;5090087;27;20542;-74
2024/01/03 05:50:01;;;;;;;1.80;1.30;;;8.70;1.00;;;;;;5090978;28;20501;-73
2024/01/03 05:52:28;;;;;;;1.67;1.30;;;8.70;1.00;;;;;;5090797;27;23559;-74
2024/01/03 05:54:55;;;;;;;1.37;0.90;;;8.70;1.00;;;;;;5090550;28;20546;-73
2024/01/03 05:57:22;;;;;;;1.80;1.13;;;8.70;1.00;;;;;;5080198;28;20473;-74
2024/01/03 05:59:49;;;;;;;1.77;1.10;;;8.70;1.00;;;;;;5083127;27;20470;-73
2024/01/03 06:02:15;;;;;;;3.17;1.23;;;8.70;1.00;;;;;;5086588;27;20517;-74
2024/01/03 06:04:44;;;;;;;2.50;1.13;;;8.70;1.00;;;;;;5072842;28;21014;-73
2024/01/03 06:07:11;;;;;;;3.33;1.30;;;8.70;1.00;;;;;;5070705;27;20470;-73
2024/01/03 06:09:38;;;;;;;4.87;1.00;;;8.70;1.00;;;;;;5081738;27;20909;-73
2024/01/03 06:12:06;;;;;;;2.70;1.30;;;8.70;1.00;;;;;;5084746;27;20469;-74
2024/01/03 06:14:32;;;;;;;1.77;1.00;;;8.80;1.00;;;;;;5088908;27;20508;-74
2024/01/03 06:16:59;;;;;;;4.10;1.07;;;8.80;1.00;;;;;;5088976;27;20576;-72
2024/01/03 06:19:26;;;;;;;1.57;0.97;;;8.80;1.00;;;;;;5090281;27;20465;-73
2024/01/03 06:21:55;;;;;;;3.13;1.10;;;8.80;1.00;;;;;;5091269;28;20497;-73
2024/01/03 06:24:22;;;;;;;3.83;1.00;;;8.90;1.00;;;;;;5087228;28;21258;-70
2024/01/03 06:26:49;;;;;;;2.30;0.87;;;8.90;1.00;;;;;;5087018;28;20497;-73
2024/01/03 06:29:16;;;;;;;2.00;0.80;;;8.90;1.00;;;;;;5087262;28;20524;-69
2024/01/03 06:31:43;;;;;;;3.33;1.33;;;8.90;1.00;;;;;;5088354;27;20470;-77
2024/01/03 06:34:10;;;;;;;2.13;1.20;;;9.00;1.00;;;;;;5086975;27;21033;-74
2024/01/03 06:36:36;;;;;;;2.73;1.10;;;9.00;1.00;;;;;;5086406;27;20458;-74
2024/01/03 06:39:05;;;;;;;2.30;1.27;;;9.10;1.00;;;;;;5070493;28;20502;-75
2024/01/03 06:41:32;;;;;;;5.70;2.00;;;9.10;1.00;;;;;;5071372;28;20462;-74
2024/01/03 06:43:59;;;;;;;1.73;0.80;;;9.10;1.00;;;;;;5089526;28;22830;-74
2024/01/03 06:46:27;;;;;;;1.27;0.90;;;9.20;1.00;;;;;;5085596;28;21002;-74
2024/01/03 06:48:54;;;;;;;2.40;1.60;;;9.20;1.00;;;;;;5082894;27;20487;-73
2024/01/03 06:51:22;;;;;;;2.30;1.47;;;9.30;1.00;;;;;;5073815;27;20475;-73
2024/01/03 06:53:49;;;;;;;1.90;1.33;;;9.30;1.00;;;;;;5068890;28;20462;-73
2024/01/03 06:56:21;;;;;;;2.73;1.23;;;9.30;1.00;;;;;;5064709;28;20975;-73
2024/01/03 06:58:49;;;;;;;3.13;1.40;;;9.40;1.00;;;;;;5067851;28;20455;-74
2024/01/03 07:01:16;;;;;;;3.53;1.10;;;9.30;1.00;;;;;;5076959;27;21246;-73
2024/01/03 07:03:43;;;;;;;2.33;1.07;;;9.30;1.00;;;;;;5082753;27;20497;-73
2024/01/03 07:06:10;;;;;;;3.77;0.97;;;9.20;1.00;;;;;;5067207;27;20466;-73
2024/01/03 07:08:37;;;;;;;2.93;1.30;;;9.20;1.00;;;;;;5070721;28;20546;-74
2024/01/03 07:11:04;;;;;;;2.70;1.37;;;9.20;1.00;;;;;;5086942;28;21015;-74
2024/01/03 07:13:33;;;;;;;3.17;1.50;;;9.10;1.00;;;;;;5084363;27;20509;-73
2024/01/03 07:16:01;;;;;;;2.77;2.03;;;9.10;1.00;;;;;;5084563;27;20496;-73
2024/01/03 07:18:28;;;;;;;2.37;1.10;;;9.10;1.00;;;;;;5084971;28;22801;-73
2024/01/03 07:20:55;;;;;;;3.27;1.57;;;9.10;1.00;;;;;;5070466;28;20532;-74
2024/01/03 07:23:21;;;;;;;3.40;1.10;;;9.10;1.00;;;;;;5063964;28;20452;-74
2024/01/03 07:25:49;;;;;;;2.50;1.47;;;9.00;1.00;;;;;;5069227;28;20503;-74
2024/01/03 07:28:15;;;;;;;4.20;1.40;;;9.00;1.00;;;;;;5068390;28;21343;-74
2024/01/03 07:30:44;;;;;;;1.67;0.97;;;9.00;1.00;;;;;;5067000;28;20510;-74
2024/01/03 07:33:11;;;;;;;1.83;1.07;;;9.00;1.00;;;;;;5081225;28;20483;-73
2024/01/03 07:35:38;;;;;;;2.47;1.20;;;9.00;1.00;;;;;;5066284;28;21254;-76
2024/01/03 07:38:07;;;;;;;1.93;0.90;;;9.00;1.00;;;;;;5074788;28;21045;-74
2024/01/03 07:40:34;;;;;;;1.53;0.90;;;9.00;1.00;;;;;;5086518;28;20448;-74
2024/01/03 07:43:01;;;;;;;4.70;1.20;;;8.90;1.00;;;;;;5072594;28;20456;-74
2024/01/03 07:45:28;;;;;;;1.47;0.90;;;8.90;1.00;;;;;;5067179;28;20633;-74
2024/01/03 07:47:56;;;;;;;3.03;1.53;;;8.90;1.00;;;;;;5073588;28;20455;-75
2024/01/03 07:50:23;;;;;;;3.10;1.23;;;8.90;1.00;;;;;;5065804;27;21014;-76
2024/01/03 07:52:50;;;;;;;2.60;1.03;;;8.90;1.00;;;;;;5083182;27;20852;-74
2024/01/03 07:55:17;;;;;;;2.40;1.30;;;8.90;1.00;;;;;;5087548;28;20585;-74
2024/01/03 07:57:44;;;;;;;2.73;1.30;;;8.90;1.00;;;;;;5078433;28;20490;-74
2024/01/03 08:00:11;;;;;;;2.07;0.73;;;8.90;1.00;;;;;;5089365;27;20552;-74
2024/01/03 08:02:38;;;;;;;2.27;0.97;;;8.90;1.00;;;;;;5087109;28;21111;-74
2024/01/03 08:05:08;;;;;;;2.10;0.90;;;8.90;1.00;;;;;;5084614;28;20459;-73
2024/01/03 08:07:35;;;;;;;4.23;1.30;;;8.90;1.00;;;;;;5088346;28;20459;-73
2024/01/03 08:10:01;;;;;;;3.00;1.53;;;8.90;1.00;;;;;;5087449;27;20550;-73
2024/01/03 08:12:28;;;;;;;1.43;0.83;;;8.90;1.00;;;;;;5088244;27;20538;-73
2024/01/03 08:14:55;;;;;;;2.20;1.00;;;8.90;1.00;;;;;;5089611;27;20556;-74
2024/01/03 08:17:21;;;;;;;4.37;2.30;;;8.90;1.00;;;;;;5085572;28;20594;-74
2024/01/03 08:19:48;;;;;;;2.53;0.97;;;8.90;1.00;;;;;;5089639;27;20521;-74
2024/01/03 08:22:16;;;;;;;1.13;0.70;;;9.00;1.00;;;;;;5075746;28;20546;-74
2024/01/03 08:24:44;;;;;;;1.90;0.83;;;9.00;1.00;;;;;;5087866;27;20509;-73
2024/01/03 08:27:11;;;;;;;2.90;0.90;;;9.00;1.00;;;;;;5086458;27;21001;-74
2024/01/03 08:29:39;;;;;;;3.93;1.07;;;9.00;1.00;;;;;;5075378;28;20515;-73
2024/01/03 08:32:08;;;;;;;3.37;0.93;;;9.00;1.00;;;;;;5066905;28;20483;-74
2024/01/03 08:34:34;;;;;;;2.33;0.80;;;9.00;1.00;;;;;;5065298;27;20561;-75
2024/01/03 08:37:01;;;;;;;1.70;0.90;;;9.00;1.00;;;;;;5066205;27;20602;-74
2024/01/03 08:39:30;;;;;;;1.57;1.00;;;9.10;1.00;;;;;;5061382;28;20464;-75
2024/01/03 08:41:57;;;;;;;2.37;1.07;;;9.10;1.00;;;;;;5085907;28;20473;-74
2024/01/03 08:44:24;;;;;;;4.00;1.27;;;9.20;1.00;;;;;;5089417;27;20474;-75
2024/01/03 08:46:51;;;;;;;1.73;0.93;;;9.10;1.00;;;;;;5078485;27;20521;-73
2024/01/03 08:49:18;;;;;;;1.10;0.73;;;9.20;1.00;;;;;;5070517;28;20475;-70
2024/01/03 08:51:46;;;;;;;3.40;1.20;;;9.20;1.00;;;;;;5067473;28;20546;-72
2024/01/03 08:54:13;;;;;;;2.53;0.87;;;9.20;1.00;;;;;;5085614;27;20565;-70
2024/01/03 08:56:42;;;;;;;2.93;1.10;;;9.30;1.00;;;;;;5089433;27;20450;-73
2024/01/03 08:59:09;;;;;;;1.43;0.63;;;9.30;1.00;;;;;;5082576;27;20479;-73
2024/01/03 09:01:36;;;;;;;2.20;1.30;;;9.40;1.00;;;;;;5089953;27;20883;-71
2024/01/03 09:04:03;;;;;;;2.73;1.27;;;9.40;1.00;;;;;;5087785;28;20559;-71
2024/01/03 09:06:35;;;;;;;2.63;1.33;;;9.40;1.00;;;;;;5088447;27;20446;-71
2024/01/03 09:09:02;;;;;;;1.63;0.80;;;9.40;1.00;;;;;;5088828;28;20897;-71
2024/01/03 09:11:30;;;;;;;1.37;0.93;;;9.50;1.00;;;;;;5089269;28;20459;-71
2024/01/03 09:13:58;;;;;;;3.33;1.10;;;9.50;1.00;;;;;;5087807;28;20490;-71
2024/01/03 09:16:26;;;;;;;3.17;1.10;;;9.50;1.00;;;;;;5088026;27;20462;-71
2024/01/03 09:18:54;;;;;;;3.30;1.17;;;9.50;1.00;;;;;;5090071;28;20585;-71
2024/01/03 09:21:21;;;;;;;2.63;0.90;;;9.60;1.00;;;;;;5087241;27;20888;-70
2024/01/03 09:23:48;;;;;;;1.97;0.97;;;9.60;1.00;;;;;;5092592;28;21070;-68
2024/01/03 09:26:15;;;;;;;1.80;0.93;;;9.70;1.00;;;;;;5088872;27;20454;-69
2024/01/03 09:28:43;;;;;;;2.97;1.07;;;9.80;1.00;;;;;;5088708;27;20459;-72
2024/01/03 09:31:11;;;;;;;2.13;0.90;;;9.80;1.00;;;;;;5089825;28;20471;-72
2024/01/03 09:33:39;;;;;;;4.60;1.23;;;9.90;1.00;;;;;;5087466;27;20455;-72
2024/01/03 09:36:06;;;;;;;1.63;1.00;;;10.00;1.00;;;;;;5069880;28;20462;-73
2024/01/03 09:38:33;;;;;;;1.93;0.90;;;10.00;1.00;;;;;;5067216;28;20912;-70
2024/01/03 09:41:02;;;;;;;1.70;1.03;;;10.00;1.00;;;;;;5066953;28;20469;-70
2024/01/03 09:43:31;;;;;;;3.40;1.10;;;10.00;1.00;;;;;;5074451;27;20721;-72
2024/01/03 09:45:58;;;;;;;2.40;1.00;;;10.10;1.00;;;;;;5089473;27;22474;-72
2024/01/03 09:48:26;;;;;;;3.20;1.10;;;10.20;1.00;;;;;;5085657;27;20566;-70
2024/01/03 09:50:53;;;;;;;2.20;1.33;;;10.30;1.00;;;;;;5069974;28;20452;-71
2024/01/03 09:53:21;;;;;;;2.60;1.10;;;10.40;1.00;;;;;;5066653;28;20538;-70
2024/01/03 09:55:49;;;;;;;2.60;1.90;;;10.50;1.00;;;;;;5079011;28;20459;-73
2024/01/03 09:58:16;;;;;;;3.70;0.90;;;10.60;1.00;;;;;;5087104;27;20482;-69
2024/01/03 10:00:43;;;;;;;2.40;0.97;;;10.70;1.00;;;;;;5085202;28;20602;-70
2024/01/03 10:03:11;;;;;;;3.37;1.20;;;10.70;1.00;;;;;;5086256;27;20451;-68
2024/01/03 10:05:39;;;;;;;3.63;1.27;;;10.60;1.00;;;;;;5084936;27;20456;-72
2024/01/03 10:08:16;;;;;;;2.90;1.40;;;10.60;1.00;;;;;;5085003;28;20561;-69
2024/01/03 10:10:45;;;;;;;2.03;0.87;;;10.60;1.00;;;;;;5086017;27;21117;-70
2024/01/03 10:13:16;;;;;;;2.20;1.00;;;10.70;1.00;;;;;;5085697;27;20466;-70
2024/01/03 10:15:45;;;;;;;2.97;1.17;;;10.90;1.00;;;;;;5085928;27;21334;-70
2024/01/03 10:18:14;;;;;;;1.47;0.80;;;11.00;1.00;;;;;;5088769;28;20549;-71
2024/01/03 10:20:42;;;;;;;4.00;1.53;;;11.00;1.00;;;;;;5089031;27;20458;-68
2024/01/03 10:23:10;;;;;;;7.20;0.93;;;11.10;1.00;;;;;;5085256;27;20470;-69
2024/01/03 10:25:38;;;;;;;2.07;1.03;;;11.20;1.00;;;;;;5089175;27;20571;-69
2024/01/03 10:28:07;;;;;;;3.50;1.53;;;11.30;1.00;;;;;;5088741;28;20487;-69
2024/01/03 10:30:34;;;;;;;1.97;1.33;;;11.40;1.00;;;;;;5081819;28;20468;-70
2024/01/03 10:33:01;;;;;;;1.80;0.97;;;11.50;1.00;;;;;;5065827;28;20998;-71
2024/01/03 10:35:29;;;;;;;2.37;1.00;;;11.60;1.00;;;;;;5064484;28;20543;-71
2024/01/03 10:37:59;;;;;;;2.30;1.00;;;11.70;1.00;;;;;;5075546;28;20468;-71
2024/01/03 10:40:28;;;;;;;2.67;1.10;;;11.90;1.00;;;;;;5064381;27;20492;-72
2024/01/03 10:42:58;;;;;;;4.20;1.03;;;12.00;1.00;;;;;;5079736;28;20455;-71
2024/01/03 10:45:26;;;;;;;1.60;1.00;;;12.10;1.00;;;;;;5086451;27;20463;-71
2024/01/03 10:47:54;;;;;;;2.40;0.90;;;12.10;1.00;;;;;;5086625;28;21309;-71
2024/01/03 10:50:21;;;;;;;2.50;1.10;;;12.20;1.00;;;;;;5086197;27;20463;-73
2024/01/03 10:52:48;;;;;;;2.33;1.43;;;12.10;1.00;;;;;;5089061;28;20918;-71
2024/01/03 10:55:22;;;;;;;2.00;0.80;;;12.10;1.00;;;;;;5087889;27;21271;-71
2024/01/03 10:57:58;;;;;;;2.40;1.63;;;12.00;1.00;;;;;;5088152;28;20498;-73
2024/01/03 11:00:36;;;;;;;3.67;0.90;;;12.10;1.00;;;;;;5086816;28;21012;-72
2024/01/03 11:03:17;;;;;;;2.07;1.10;;;12.10;1.00;;;;;;5081357;27;20459;-71
2024/01/03 11:05:54;;;;;;;2.00;1.13;;;12.10;1.00;;;;;;5065453;27;20451;-73
2024/01/03 11:08:24;;;;;;;3.07;1.03;;;12.20;1.00;;;;;;5081569;28;20506;-70
2024/01/03 11:10:53;;;;;;;2.13;1.00;;;12.20;1.00;;;;;;5087511;28;20521;-71
2024/01/03 11:13:27;;;;;;;4.60;2.77;;;12.30;1.00;;;;;;5089031;27;21078;-70
2024/01/03 11:15:54;;;;;;;4.10;1.17;;;12.30;1.00;;;;;;5086997;28;20582;-71
2024/01/03 11:18:51;;;;;;;2.27;1.33;;;12.30;1.00;;;;;;5086721;28;20470;-70
2024/01/03 11:21:37;;;;;;;2.17;1.10;;;12.40;1.00;;;;;;5087778;27;20478;-70
2024/01/03 11:24:06;;;;;;;1.60;0.77;;;12.50;1.00;;;;;;5082600;27;20531;-71
2024/01/03 11:27:04;;;;;;;1.53;1.00;;;12.60;1.00;;;;;;5087414;27;20449;-71
2024/01/03 11:29:44;;;;;;;3.53;1.60;;;12.60;1.00;;;;;;5079519;28;20469;-70
2024/01/03 11:32:13;;;;;;;1.77;1.13;;;12.50;1.00;;;;;;5080461;28;20441;-71
2024/01/03 11:34:41;;;;;;;1.43;1.00;;;12.30;1.00;;;;;;5078130;27;20455;-72
2024/01/03 11:37:32;;;;;;;3.37;1.30;;;12.30;1.00;;;;;;5082929;27;20479;-72
2024/01/03 11:39:59;;;;;;;2.20;1.20;;;12.40;1.00;;;;;;5085901;28;20555;-71
2024/01/03 11:42:30;;;;;;;2.17;1.40;;;12.40;1.00;;;;;;5085522;27;20598;-73
2024/01/03 11:45:02;;;;;;;5.10;1.60;;;12.40;1.00;;;;;;5088442;27;20536;-73
2024/01/03 11:47:29;;;;;;;3.60;1.10;;;12.40;1.00;;;;;;5082884;27;20445;-73
2024/01/03 11:49:57;;;;;;;5.30;1.50;;;12.40;1.00;;;;;;5066881;28;20561;-74
2024/01/03 11:52:24;;;;;;;1.80;0.97;;;12.60;1.00;;;;;;5068049;28;21209;-74
2024/01/03 11:54:52;;;;;;;2.83;1.40;;;12.80;1.00;;;;;;5074330;28;20547;-73
2024/01/03 11:57:22;;;;;;;4.90;1.70;;;12.80;1.00;;;;;;5078871;28;23074;-73
2024/01/03 11:59:59;;;;;;;4.73;1.10;;;12.70;1.00;;;;;;5066119;27;20950;-76
2024/01/03 12:02:26;;;;;;;4.50;1.50;;;12.50;1.00;;;;;;5076149;28;20622;-73
2024/01/03 12:05:03;;;;;;;8.47;1.60;;;12.40;1.00;;;;;;5074982;28;20982;-76
2024/01/03 12:07:31;;;;;;;2.00;0.80;;;12.20;1.00;;;;;;5068279;28;20852;-75
2024/01/03 12:09:59;;;;;;;3.30;1.40;;;12.10;1.00;;;;;;5070646;28;20500;-78
2024/01/03 12:12:26;;;;;;;2.00;1.20;;;12.10;1.00;;;;;;5069643;27;20969;-75
2024/01/03 12:14:55;;;;;;;3.93;1.70;;;12.10;1.00;;;;;;5088982;27;20462;-75
2024/01/03 12:17:26;;;;;;;2.30;1.20;;;12.00;1.00;;;;;;5094608;27;20438;-74
2024/01/03 12:19:53;;;;;;;3.30;1.67;;;11.80;1.00;;;;;;5092193;27;20636;-75
2024/01/03 12:22:23;;;;;;;3.83;1.60;;;11.70;1.00;;;;;;5090260;27;20832;-75
2024/01/03 12:24:50;;;;;;;3.60;1.63;;;11.70;1.00;;;;;;5096530;28;20467;-74
2024/01/03 12:27:22;;;;;;;4.20;1.47;;;11.70;1.00;;;;;;5091935;28;20551;-75
2024/01/03 12:29:49;;;;;;;3.27;1.90;;;11.70;1.00;;;;;;5089745;27;20475;-74
2024/01/03 12:32:18;;;;;;;4.60;1.83;;;11.60;1.00;;;;;;5090730;27;20455;-75
2024/01/03 12:34:47;;;;;;;4.03;1.90;;;11.50;1.00;;;;;;5086269;27;20680;-74
2024/01/03 12:37:14;;;;;;;4.13;1.37;;;11.50;1.00;;;;;;5074116;28;21213;-76
2024/01/03 12:39:42;;;;;;;3.90;2.20;;;11.50;1.00;;;;;;5072781;27;20487;-75
2024/01/03 12:42:10;;;;;;;5.40;1.90;;;11.50;1.00;;;;;;5081039;28;21048;-72
2024/01/03 12:44:37;;;;;;;5.77;1.77;;;11.50;1.00;;;;;;5093449;27;20474;-72
2024/01/03 12:47:06;;;;;;;4.97;1.67;;;11.50;1.00;;;;;;5091578;27;20464;-75
2024/01/03 12:49:34;;;;;;;3.23;2.03;;;11.40;1.00;;;;;;5091847;27;21199;-75
2024/01/03 12:52:01;;;;;;;3.60;1.97;;;11.50;1.00;;;;;;5092157;27;20453;-74
2024/01/03 12:54:28;;;;;;;4.40;1.40;;;11.50;1.00;;;;;;5093304;27;21126;-73
2024/01/03 12:56:56;;;;;;;4.53;1.93;;;11.50;1.00;;;;;;5080507;27;21993;-74
2024/01/03 12:59:23;;;;;;;3.50;1.70;;;11.40;1.00;;;;;;5070923;28;21174;-73
2024/01/03 13:01:50;;;;;;;5.00;1.70;;;11.30;1.00;;;;;;5073885;28;20420;-75
2024/01/03 13:04:17;;;;;;;4.67;2.20;;;11.30;1.00;;;;;;5073448;28;20595;-74
2024/01/03 13:06:45;;;;;;;1.60;1.30;;;11.20;1.00;;;;;;5073335;28;20460;-74
2024/01/03 13:09:13;;;;;;;3.63;1.93;;;11.20;1.00;;;;;;5088618;27;20517;-75
2024/01/03 13:11:40;;;;;;;3.27;1.60;;;11.20;1.00;;;;;;5073404;27;20995;-73